Latest Weather Observations for Bradshaw

IDD60801

Issued at 10:31 am CST Wednesday 25 May 2022 (issued every 10 minutes, with the page automatically refreshed every 10 minutes)

About weather observations | Map of weather stations | Latest weather observations for NT | Other Formats
Station Details ID: 014954 Name: BRADSHAW Lat: -14.94 Lon: 130.81 Height: 75.0 m
Data from the previous 72 hours. | See also: Recent months at Bradshaw
Date/Time
CST
Temp
°C
App
Temp
°C
Dew
Point
°C
Rel
Hum
%
Delta-T
°C
Wind Press
QNH
hPa
Press
MSL
hPa
Rain since
9am
mm
Dir  Spd
km/h
Gust
km/h
Spd
kts
Gust
kts
25/10:30am 30.8 27.2 8.5 25 12.4 ESE 17 24 9 13 1015.0 1014.6 0.0
25/10:00am 30.2 27.4 8.6 26 12.0 E 13 19 7 10 1015.3 1014.9 0.0
25/09:30am 29.0 27.1 9.2 29 11.0 ESE 9 15 5 8 1015.3 1014.9 0.0
25/09:00am 27.7 25.3 8.6 30 10.5 ESE 11 15 6 8 1015.2 1014.8 0.0
25/08:30am 25.8 26.6 13.6 46 7.2 WNW 2 6 1 3 1015.2 1014.8 0.0
25/08:00am 22.5 24.0 14.6 61 4.7 CALM 0 0 0 0 1015.1 1014.7 0.0
25/07:30am 20.2 21.4 13.9 67 3.6 CALM 0 0 0 0 1014.8 1014.4 0.0
25/07:00am 20.3 20.1 13.7 66 3.8 N 7 11 4 6 1014.4 1014.0 0.0
25/06:30am 20.2 20.1 13.4 65 3.9 N 6 7 3 4 1014.2 1013.8 0.0
25/06:00am 20.7 21.8 13.4 63 4.2 CALM 0 6 0 3 1013.8 1013.4 0.0
25/05:30am 21.5 21.4 13.4 60 4.7 E 6 13 3 7 1013.7 1013.3 0.0
25/05:00am 20.8 22.0 13.7 64 4.1 CALM 0 0 0 0 1013.7 1013.3 0.0
25/04:30am 21.5 21.5 13.7 61 4.5 ESE 6 9 3 5 1013.7 1013.3 0.0
25/04:00am 21.9 22.8 13.0 57 5.1 CALM 0 6 0 3 1013.1 1012.7 0.0
25/03:30am 22.8 22.2 13.6 56 5.4 N 9 11 5 6 1013.1 1012.7 0.0
25/03:00am 22.6 21.7 13.7 57 5.2 NNW 11 13 6 7 1013.5 1013.1 0.0
25/02:30am 22.3 22.2 13.4 57 5.2 NNW 6 7 3 4 1013.9 1013.5 0.0
25/02:00am 22.7 22.6 13.2 55 5.5 N 6 7 3 4 1014.2 1013.8 0.0
25/01:30am 22.6 23.2 13.1 55 5.5 N 2 7 1 4 1014.3 1013.9 0.0
25/01:00am 22.7 23.6 12.9 54 5.6 CALM 0 2 0 1 1014.5 1014.1 0.0
25/12:30am 24.0 24.6 12.0 47 6.8 CALM 0 7 0 4 1014.6 1014.2 0.0
25/12:00am 24.3 24.6 12.3 47 6.9 N 2 7 1 4 1014.7 1014.3 0.0
 
Date/Time
CST
Temp
°C
App
Temp
°C
Dew
Point
°C
Rel
Hum
%
Delta-T
°C
Wind Press
QNH
hPa
Press
MSL
hPa
Rain since
9am
mm
Dir  Spd
km/h
Gust
km/h
Spd
kts
Gust
kts
24/11:30pm 25.9 24.8 12.0 42 8.0 N 9 11 5 6 1014.7 1014.3 0.0
24/11:00pm 25.5 24.2 12.4 44 7.6 NNW 11 15 6 8 1014.6 1014.2 0.0
24/10:30pm 23.6 23.4 12.9 51 6.2 N 6 9 3 5 1014.7 1014.3 0.0
24/10:00pm 24.2 24.3 12.8 49 6.6 E 4 7 2 4 1014.8 1014.4 0.0
24/09:30pm 24.9 25.3 12.5 46 7.1 E 2 7 1 4 1014.9 1014.5 0.0
24/09:00pm 24.9 25.9 13.1 47 6.9 CALM 0 0 0 0 1014.7 1014.3 0.0
24/08:30pm 25.4 25.5 12.6 45 7.4 W 4 9 2 5 1014.3 1013.9 0.0
24/08:00pm 27.2 27.7 11.7 38 8.9 CALM 0 0 0 0 1013.8 1013.4 0.0
24/07:30pm 28.6 27.0 11.6 34 9.8 N 11 13 6 7 1013.2 1012.8 0.0
24/07:00pm 29.0 27.4 11.6 34 10.1 N 11 13 6 7 1013.0 1012.6 0.0
24/06:30pm 31.1 29.9 10.4 28 11.9 WNW 7 9 4 5 1012.8 1012.4 0.0
24/06:00pm 33.5 32.5 10.2 24 13.5 WNW 6 13 3 7 1012.3 1011.9 0.0
24/05:30pm 34.5 33.7 9.7 22 14.3 NNW 4 9 2 5 1012.1 1011.7 0.0
24/05:00pm 34.6 33.5 9.8 22 14.3 SSW 6 11 3 6 1012.0 1011.6 0.0
24/04:30pm 34.4 33.0 9.6 22 14.3 SSE 7 11 4 6 1011.8 1011.4 0.0
24/04:00pm 33.9 32.4 9.2 22 14.1 SE 7 13 4 7 1011.7 1011.3 0.0
24/03:30pm 34.3 32.5 9.5 22 14.2 SE 9 17 5 9 1011.8 1011.4 0.0
24/03:00pm 34.1 32.4 10.0 23 13.9 SSW 9 15 5 8 1011.8 1011.4 0.0
24/02:30pm 33.8 30.9 9.8 23 13.8 E 15 20 8 11 1012.0 1011.6 0.0
24/02:00pm 34.1 32.1 10.0 23 13.9 SSW 11 15 6 8 1012.3 1011.9 0.0
24/01:30pm 34.3 33.1 10.2 23 14.0 NE 7 13 4 7 1012.7 1012.3 0.0
24/01:00pm 33.2 31.7 10.5 25 13.2 E 9 22 5 12 1013.0 1012.6 0.0
24/12:30pm 32.8 30.6 10.8 26 12.8 ESE 13 20 7 11 1013.4 1013.0 0.0
24/12:00pm 32.7 31.4 11.3 27 12.5 ENE 9 20 5 11 1013.9 1013.5 0.0
24/11:30am 31.9 30.5 12.2 30 11.7 ENE 11 19 6 10 1014.3 1013.9 0.0
24/11:00am 31.4 30.0 12.2 30 11.3 NE 11 24 6 13 1014.6 1014.2 0.0
24/10:30am 30.3 29.1 12.7 34 10.4 E 11 19 6 10 1014.8 1014.4 0.0
24/10:00am 28.8 28.4 13.1 38 9.3 NE 7 11 4 6 1015.0 1014.6 0.0
24/09:30am 27.6 27.5 12.0 38 9.0 ENE 4 7 2 4 1015.2 1014.8 0.0
24/09:00am 26.2 25.5 11.5 40 8.4 NE 6 9 3 5 1015.1 1014.7 0.0
24/08:30am 25.0 25.2 11.9 44 7.5 N 2 7 1 4 1015.0 1014.6 0.0
24/08:00am 22.3 22.7 12.5 53 5.6 N 2 6 1 3 1014.7 1014.3 0.0
24/07:30am 19.7 19.2 12.2 62 4.2 N 6 7 3 4 1014.2 1013.8 0.0
24/07:00am 19.2 19.1 12.0 63 4.0 N 4 9 2 5 1013.8 1013.4 0.0
24/06:30am 19.5 18.8 12.0 62 4.2 N 7 9 4 5 1013.5 1013.1 0.0
24/06:00am 18.8 19.4 11.9 64 3.8 CALM 0 7 0 4 1013.3 1012.9 0.0
24/05:30am 19.1 18.6 11.9 63 4.0 NNW 6 9 3 5 1013.0 1012.6 0.0
24/05:00am 19.6 18.5 11.9 61 4.3 N 9 11 5 6 1013.1 1012.7 0.0
24/04:30am 19.1 18.8 11.4 61 4.2 S 4 9 2 5 1013.0 1012.6 0.0
24/04:00am 19.6 19.0 11.6 60 4.4 WNW 6 17 3 9 1012.6 1012.2 0.0
24/03:30am 20.4 19.6 11.1 55 5.1 N 6 7 3 4 1012.6 1012.2 0.0
24/03:00am 20.8 20.7 10.9 53 5.4 N 2 7 1 4 1012.7 1012.3 0.0
24/02:30am 20.6 19.7 10.7 53 5.4 N 6 11 3 6 1012.8 1012.4 0.0
24/02:00am 20.2 18.8 10.9 55 5.1 N 9 11 5 6 1012.9 1012.5 0.0
24/01:30am 20.6 19.2 11.0 54 5.3 N 9 11 5 6 1013.1 1012.7 0.0
24/01:00am 21.6 21.0 10.4 49 6.1 ENE 4 7 2 4 1013.1 1012.7 0.0
24/12:30am 20.7 20.8 10.2 51 5.7 CALM 0 0 0 0 1013.1 1012.7 0.0
24/12:00am 21.3 21.4 10.2 49 6.0 CALM 0 0 0 0 1013.3 1012.9 0.0
 
Date/Time
CST
Temp
°C
App
Temp
°C
Dew
Point
°C
Rel
Hum
%
Delta-T
°C
Wind Press
QNH
hPa
Press
MSL
hPa
Rain since
9am
mm
Dir  Spd
km/h
Gust
km/h
Spd
kts
Gust
kts
23/11:30pm 21.9 20.9 11.0 50 6.0 N 7 9 4 5 1013.3 1012.9 0.0
23/11:00pm 22.9 21.9 10.3 45 6.9 N 6 9 3 5 1013.4 1013.0 0.0
23/10:30pm 24.5 22.6 10.4 41 7.8 N 11 13 6 7 1013.4 1013.0 0.0
23/10:00pm 23.9 22.8 10.6 43 7.4 N 7 11 4 6 1013.4 1013.0 0.0
23/09:30pm 22.7 22.5 10.5 46 6.7 N 2 9 1 5 1013.3 1012.9 0.0
23/09:00pm 23.0 23.4 11.4 48 6.5 CALM 0 0 0 0 1013.2 1012.8 0.0
23/08:30pm 24.1 22.9 10.4 42 7.6 NNE 7 9 4 5 1013.0 1012.6 0.0
23/08:00pm 25.9 24.6 9.3 35 9.1 NNE 6 7 3 4 1012.6 1012.2 0.0
23/07:30pm 27.3 25.8 9.2 32 10.0 NE 7 9 4 5 1012.1 1011.7 0.0
23/07:00pm 28.2 26.7 8.5 29 10.8 NE 6 7 3 4 1011.7 1011.3 0.0
23/06:30pm 31.2 29.6 8.2 24 12.7 NE 6 7 3 4 1011.2 1010.8 0.0
23/06:00pm 33.4 30.9 6.6 19 14.6 E 9 13 5 7 1010.8 1010.4 0.0
23/05:30pm 34.2 31.7 6.5 18 15.2 E 9 22 5 12 1010.6 1010.2 0.0
23/05:00pm 34.5 32.0 6.7 18 15.3 SE 9 15 5 8 1010.6 1010.2 0.0
23/04:30pm 34.3 31.2 7.4 19 15.0 SE 13 22 7 12 1010.7 1010.3 0.0
23/04:00pm 35.0 31.7 7.9 19 15.2 E 15 22 8 12 1010.6 1010.2 0.0
23/03:30pm 35.1 32.4 7.2 18 15.5 E 11 19 6 10 1010.8 1010.4 0.0
23/03:00pm 34.4 31.4 7.5 19 15.0 SE 13 22 7 12 1011.0 1010.6 0.0
23/02:30pm 34.7 32.6 8.4 20 14.9 ENE 9 19 5 10 1011.2 1010.8 0.0
23/02:00pm 34.0 31.4 7.9 20 14.6 SE 11 24 6 13 1011.7 1011.3 0.0
23/01:30pm 34.2 31.8 8.8 21 14.4 NE 11 19 6 10 1012.2 1011.8 0.0
23/01:00pm 33.6 30.4 8.3 21 14.2 ENE 15 26 8 14 1012.7 1012.3 0.0
23/12:30pm 33.1 29.5 8.5 22 13.8 SE 17 28 9 15 1013.3 1012.9 0.0
23/12:00pm 32.4 29.2 8.6 23 13.3 E 15 22 8 12 1013.9 1013.5 0.0
23/11:30am 32.1 29.0 9.0 24 13.0 E 15 20 8 11 1014.4 1014.0 0.0
23/11:00am 31.2 27.7 8.8 25 12.5 ESE 17 26 9 14 1015.2 1014.8 0.0
23/10:30am 30.6 27.8 10.0 28 11.7 ESE 15 22 8 12 1015.5 1015.1 0.0
23/10:00am 29.7 27.4 10.3 30 11.0 SE 13 20 7 11 1015.7 1015.3 0.0
23/09:30am 28.2 26.5 9.9 32 10.3 S 9 13 5 7 1015.6 1015.2 0.0
23/09:00am 26.8 25.6 9.6 34 9.5 SSW 6 9 3 5 1015.3 1014.9 0.0
23/08:30am 24.6 24.9 10.8 42 7.7 CALM 0 0 0 0 1015.1 1014.7 0.0
23/08:00am 21.5 21.6 10.0 48 6.2 CALM 0 0 0 0 1014.8 1014.4 0.0
23/07:30am 18.6 18.3 10.2 58 4.5 W 2 6 1 3 1014.5 1014.1 0.0
23/07:00am 18.6 18.5 9.4 55 4.9 CALM 0 0 0 0 1014.1 1013.7 0.0
23/06:30am 18.9 17.5 8.8 52 5.3 WNW 6 7 3 4 1013.8 1013.4 0.0
23/06:00am 18.8 17.4 9.6 55 4.9 WNW 7 7 4 4 1013.5 1013.1 0.0
23/05:30am 17.6 16.6 10.9 65 3.6 W 7 13 4 7 1013.3 1012.9 0.0
23/05:00am 17.6 17.9 10.9 65 3.6 CALM 0 0 0 0 1013.0 1012.6 0.0
23/04:30am 19.2 19.5 11.0 59 4.5 CALM 0 0 0 0 1013.0 1012.6 0.0
23/04:00am 18.0 18.0 11.1 64 3.7 E 2 7 1 4 1012.8 1012.4 0.0
23/03:30am 18.1 18.3 10.7 62 4.0 CALM 0 4 0 2 1012.7 1012.3 0.0
23/03:00am 18.8 19.0 10.6 59 4.4 CALM 0 0 0 0 1012.8 1012.4 0.0
23/02:30am 18.9 19.3 11.2 61 4.2 CALM 0 0 0 0 1012.8 1012.4 0.0
23/02:00am 19.3 19.7 11.1 59 4.5 CALM 0 0 0 0 1012.9 1012.5 0.0
23/01:30am 20.2 19.4 10.9 55 5.1 NNW 6 7 3 4 1013.0 1012.6 0.0
23/01:00am 20.3 20.8 11.5 57 4.9 CALM 0 0 0 0 1013.1 1012.7 0.0
23/12:30am 20.8 21.1 10.9 53 5.4 CALM 0 0 0 0 1013.0 1012.6 0.0
23/12:00am 20.7 20.9 10.5 52 5.6 CALM 0 0 0 0 1013.0 1012.6 0.0
 
Date/Time
CST
Temp
°C
App
Temp
°C
Dew
Point
°C
Rel
Hum
%
Delta-T
°C
Wind Press
QNH
hPa
Press
MSL
hPa
Rain since
9am
mm
Dir  Spd
km/h
Gust
km/h
Spd
kts
Gust
kts
22/11:30pm 21.4 20.9 10.6 50 5.9 E 4 7 2 4 1013.1 1012.7 0.0
22/11:00pm 21.8 21.6 10.3 48 6.3 ENE 2 7 1 4 1013.3 1012.9 0.0
22/10:30pm 22.5 22.6 10.3 46 6.7 CALM 0 0 0 0 1013.2 1012.8 0.0
22/10:00pm 22.9 22.8 10.7 46 6.8 WNW 2 7 1 4 1013.1 1012.7 0.0
22/09:30pm 22.9 22.9 11.3 48 6.5 NW 2 7 1 4 1012.8 1012.4 0.0
22/09:00pm 24.3 23.5 10.9 43 7.5 WNW 6 7 3 4 1012.8 1012.4 0.0
22/08:30pm 24.2 23.3 10.5 42 7.6 NW 6 7 3 4 1012.5 1012.1 0.0
22/08:00pm 24.7 24.9 10.6 41 7.9 CALM 0 0 0 0 1012.2 1011.8 0.0
22/07:30pm 25.6 24.4 10.2 38 8.6 WSW 7 9 4 5 1011.6 1011.2 0.0
22/07:00pm 27.8 27.5 8.6 30 10.5 CALM 0 0 0 0 1011.2 1010.8 0.0
22/06:30pm 30.6 28.9 8.3 25 12.3 SSW 7 9 4 5 1010.9 1010.5 0.0
22/06:00pm 32.3 29.7 7.9 22 13.5 SSW 11 15 6 8 1010.6 1010.2 0.0
22/05:30pm 33.3 29.6 8.0 21 14.1 S 17 20 9 11 1010.3 1009.9 0.0
22/05:00pm 33.4 30.3 7.4 20 14.4 SE 13 24 7 13 1009.8 1009.4 0.0
22/04:30pm 33.5 30.6 8.2 21 14.2 SSE 13 24 7 13 1009.9 1009.5 0.0
22/04:00pm 34.3 31.4 8.1 20 14.7 S 13 20 7 11 1010.1 1009.7 0.0
22/03:30pm 33.6 30.4 8.3 21 14.2 SE 15 24 8 13 1010.3 1009.9 0.0
22/03:00pm 33.6 30.0 8.3 21 14.2 SSE 17 28 9 15 1010.6 1010.2 0.0
22/02:30pm 33.7 30.1 8.3 21 14.3 SSE 17 24 9 13 1011.1 1010.7 0.0
22/02:00pm 33.6 31.3 9.0 22 14.0 SSE 11 22 6 12 1011.6 1011.2 0.0
22/01:30pm 32.7 28.9 8.9 23 13.4 SSE 19 28 10 15 1012.3 1011.9 0.0
22/01:00pm 32.8 29.3 8.9 23 13.5 ESE 17 26 9 14 1012.8 1012.4 0.0
22/12:30pm 32.2 29.5 10.3 26 12.6 SE 15 24 8 13 1013.4 1013.0 0.0
22/12:00pm 31.9 28.9 10.6 27 12.3 ESE 17 26 9 14 1014.0 1013.6 0.0
22/11:30am 31.2 28.5 10.5 28 11.9 ESE 15 26 8 14 1014.5 1014.1 0.0
22/11:00am 30.7 27.7 10.6 29 11.5 ESE 17 26 9 14 1015.0 1014.6 0.0

Other formats

Comma delimited format used in spreadsheet applications
http://www.bom.gov.au/fwo/IDD60801/IDD60801.94130.axf

JavaScript Object Notation format (JSON) in row-major order
http://www.bom.gov.au/fwo/IDD60801/IDD60801.94130.json

Data quality

Most of these data are generated automatically and are frequently updated. Quality checks on data are not normally performed. It is possible for incorrect values to appear. Refer to information at About Latest Weather Observations and please check the disclaimer before using these data.